Latest Weather Observations for Beaudesert AWS

IDQ60801

Issued at 8:52 pm EST Wednesday 19 September 2018 (issued every 10 minutes, with the page automatically refreshed every 10 minutes)

About weather observations | Map of weather stations | Latest weather observations for QLD | Other Formats
Station Details ID: 040983 Name: BEAUDESERT DRUMLEY STREET Lat: -27.97 Lon: 152.99 Height: 47.81 m
Data from the previous 72 hours. | See also: Recent months at Beaudesert AWS
Date/Time
EST
Temp
°C
App
Temp
°C
Dew
Point
°C
Rel
Hum
%
Delta-T
°C
Wind Press
QNH
hPa
Press
MSL
hPa
Rain since
9am
mm
Dir  Spd
km/h
Gust
km/h
Spd
kts
Gust
kts
19/08:30pm 17.7 18.1 12.4 71 2.9 SE 2 4 1 2 1014.4 1014.3 0.0
19/08:00pm 18.1 17.9 11.7 66 3.5 SE 4 6 2 3 1014.2 1014.1 0.0
19/07:30pm 18.5 18.6 11.6 64 3.8 E 2 6 1 3 1014.1 1014.0 0.0
19/07:00pm 19.9 20.2 12.2 61 4.3 N 2 6 1 3 1013.9 1013.8 0.0
19/06:30pm 20.7 20.5 12.9 61 4.4 NNE 6 9 3 5 1013.5 1013.4 0.0
19/06:00pm 21.6 21.1 12.7 57 5.1 NNE 7 17 4 9 1013.0 1012.9 0.0
19/05:30pm 22.6 21.8 12.8 54 5.6 NNE 9 17 5 9 1013.0 1012.9 0.0
19/05:00pm 23.8 22.2 12.8 50 6.3 N 13 24 7 13 1012.6 1012.5 0.0
19/04:30pm 24.7 23.2 13.0 48 6.8 NNE 13 22 7 12 1012.3 1012.2 0.0
19/04:00pm 25.6 24.1 13.1 46 7.3 NNE 13 20 7 11 1012.0 1011.9 0.0
19/03:30pm 25.9 23.9 12.7 44 7.7 NNE 15 26 8 14 1012.1 1012.0 0.0
19/03:00pm 27.1 25.5 12.7 41 8.4 NNE 13 20 7 11 1012.2 1012.1 0.0
19/02:30pm 27.4 25.5 11.8 38 9.0 NNE 13 22 7 12 1012.3 1012.2 0.0
19/02:00pm 27.7 26.9 11.7 37 9.2 NNW 7 20 4 11 1012.8 1012.7 0.0
19/01:30pm 26.9 26.0 11.4 38 8.9 NNE 7 13 4 7 1013.2 1013.1 0.0
19/01:00pm 26.1 24.4 11.1 39 8.5 NNW 11 19 6 10 1014.0 1013.9 0.0
19/12:30pm 25.6 23.8 11.0 40 8.2 NNW 11 20 6 11 1014.7 1014.6 0.0
19/12:00pm 25.5 24.2 11.3 41 8.0 NNW 9 20 5 11 1015.6 1015.5 0.0
19/11:30am 25.3 23.8 11.8 43 7.7 NNW 11 20 6 11 1016.3 1016.2 0.0
19/11:00am 24.6 24.1 12.5 46 7.0 WNW 7 15 4 8 1017.0 1016.9 0.0
19/10:30am 22.3 21.4 11.4 50 6.1 WNW 7 15 4 8 1017.6 1017.5 0.0
19/10:00am 21.7 20.9 11.7 53 5.6 NW 7 15 4 8 1018.2 1018.1 0.0
19/09:30am 21.4 20.6 11.7 54 5.4 N 7 15 4 8 1018.7 1018.6 0.0
19/09:00am 20.3 20.3 12.5 61 4.4 SSE 4 7 2 4 1019.3 1019.2 0.0
19/08:30am 19.2 19.5 12.2 64 3.9 SSE 2 4 1 2 1019.5 1019.4 0.0
19/08:00am 16.6 16.8 12.0 74 2.5 ESE 2 4 1 2 1019.7 1019.6 0.0
19/07:30am 14.0 14.3 10.8 81 1.7 CALM 0 2 0 1 1019.7 1019.6 0.0
19/07:00am 13.1 13.4 10.8 86 1.2 CALM 0 0 0 0 1019.6 1019.5 0.0
19/06:30am 12.1 12.2 10.3 89 0.9 CALM 0 0 0 0 1019.4 1019.3 0.0
19/06:00am 11.5 11.5 9.9 90 0.8 CALM 0 2 0 1 1019.0 1018.9 0.0
19/05:30am 11.0 10.9 9.3 89 0.9 CALM 0 0 0 0 1018.8 1018.7 0.0
19/05:00am 10.9 10.7 9.2 89 0.8 CALM 0 0 0 0 1018.4 1018.3 0.0
19/04:30am 11.4 11.3 9.3 87 1.1 CALM 0 0 0 0 1018.3 1018.2 0.0
19/04:00am 11.7 11.7 9.9 89 0.9 CALM 0 2 0 1 1018.3 1018.2 0.0
19/03:30am 10.9 10.5 9.7 92 0.6 SE 2 4 1 2 1018.2 1018.1 0.0
19/03:00am 10.3 10.1 8.9 91 0.7 CALM 0 0 0 0 1018.1 1018.0 0.0
19/02:30am 10.1 9.6 8.0 87 1.0 CALM 0 0 0 0 1018.3 1018.2 0.0
19/02:00am 11.1 10.1 8.8 86 1.1 SE 4 4 2 2 1018.3 1018.2 0.0
19/01:30am 11.9 11.8 9.3 84 1.3 CALM 0 2 0 1 1018.9 1018.8 0.0
19/01:00am 12.4 12.4 9.8 84 1.3 CALM 0 4 0 2 1019.5 1019.4 0.0
19/12:30am 12.3 11.9 9.9 85 1.2 SE 2 4 1 2 1019.7 1019.6 0.0
19/12:00am 10.9 10.3 9.0 88 0.9 ESE 2 4 1 2 1020.0 1019.9 0.0
 
Date/Time
EST
Temp
°C
App
Temp
°C
Dew
Point
°C
Rel
Hum
%
Delta-T
°C
Wind Press
QNH
hPa
Press
MSL
hPa
Rain since
9am
mm
Dir  Spd
km/h
Gust
km/h
Spd
kts
Gust
kts
18/11:30pm 10.8 10.3 8.0 83 1.4 CALM 0 2 0 1 1020.1 1020.0 0.0
18/11:00pm 10.7 10.4 8.6 87 1.0 CALM 0 4 0 2 1020.2 1020.1 0.0
18/10:30pm 11.1 10.9 9.0 87 1.0 CALM 0 2 0 1 1020.3 1020.2 0.0
18/10:00pm 10.8 10.5 8.6 86 1.1 CALM 0 0 0 0 1020.2 1020.1 0.0
18/09:30pm 10.9 10.4 8.0 82 1.4 CALM 0 0 0 0 1020.2 1020.1 0.0
18/09:00pm 11.9 11.5 8.4 79 1.7 CALM 0 2 0 1 1020.2 1020.1 0.0
18/08:30pm 14.2 14.1 9.4 73 2.5 CALM 0 0 0 0 1019.9 1019.8 0.0
18/08:00pm 14.6 14.2 9.6 72 2.6 ENE 2 4 1 2 1020.1 1020.0 0.0
18/07:30pm 15.1 14.9 9.0 67 3.1 CALM 0 2 0 1 1020.0 1019.9 0.0
18/07:00pm 16.5 15.6 9.4 63 3.7 E 4 6 2 3 1019.5 1019.4 0.0
18/06:30pm 17.8 17.0 9.7 59 4.3 NE 4 9 2 5 1019.3 1019.2 0.0
18/06:00pm 18.8 17.1 9.8 56 4.8 ENE 9 15 5 8 1018.9 1018.8 0.0
18/05:30pm 20.0 17.6 10.1 53 5.3 ENE 13 28 7 15 1018.5 1018.4 0.0
18/05:00pm 21.7 19.7 10.2 48 6.3 NE 11 19 6 10 1018.1 1018.0 0.0
18/04:30pm 23.0 21.1 10.4 45 6.9 NE 11 19 6 10 1017.9 1017.8 0.0
18/04:00pm 23.2 21.1 9.6 42 7.4 NNE 11 20 6 11 1017.7 1017.6 0.0
18/03:30pm 24.0 21.4 9.2 39 8.0 NNE 13 20 7 11 1017.7 1017.6 0.0
18/03:00pm 24.8 22.1 10.3 40 8.0 NE 15 26 8 14 1017.9 1017.8 0.0
18/02:30pm 23.5 21.6 10.6 44 7.1 ENE 11 17 6 9 1018.2 1018.1 0.0
18/02:00pm 23.5 22.3 9.5 41 7.6 NE 6 13 3 7 1018.8 1018.7 0.0
18/01:30pm 24.1 22.4 10.0 41 7.8 NE 9 15 5 8 1019.3 1019.2 0.0
18/01:00pm 22.9 21.1 10.7 46 6.7 NNE 11 19 6 10 1019.9 1019.8 0.0
18/12:30pm 23.4 22.3 10.5 44 7.1 NNE 7 15 4 8 1020.5 1020.4 0.0
18/12:00pm 21.8 20.6 10.3 48 6.3 N 7 17 4 9 1021.2 1021.1 0.0
18/11:30am 23.0 21.9 10.8 46 6.8 NNE 7 20 4 11 1021.8 1021.7 0.0
18/11:00am 22.8 22.0 11.8 50 6.2 NNW 7 13 4 7 1022.5 1022.5 0.0
18/10:30am 20.6 18.9 11.2 55 5.2 WNW 11 15 6 8 1023.1 1023.0 0.0
18/10:00am 21.0 20.2 11.1 53 5.4 SW 6 13 3 7 1023.3 1023.2 0.0
18/09:30am 19.9 19.4 10.9 56 4.9 SSE 4 9 2 5 1023.6 1023.5 0.0
18/09:00am 19.4 18.9 10.9 58 4.6 S 4 9 2 5 1023.9 1023.8 0.0
18/08:30am 17.3 16.4 10.7 65 3.5 S 6 9 3 5 1024.1 1024.0 0.0
18/08:00am 13.4 13.0 9.8 79 1.8 S 2 4 1 2 1024.1 1024.0 0.0
18/07:30am 10.6 9.9 8.7 88 0.9 S 2 6 1 3 1024.1 1024.0 0.0
18/07:00am 9.9 9.5 8.2 89 0.8 CALM 0 2 0 1 1024.0 1023.9 0.0
18/06:30am 8.4 7.8 7.3 93 0.5 CALM 0 0 0 0 1023.7 1023.6 0.0
18/06:00am 7.5 6.7 6.6 94 0.4 CALM 0 4 0 2 1023.6 1023.5 0.0
18/05:30am 7.7 6.5 6.6 93 0.5 S 2 6 1 3 1023.3 1023.2 0.0
18/05:00am 7.8 6.6 6.6 92 0.5 S 2 4 1 2 1023.0 1022.9 0.0
18/04:30am 8.2 6.7 7.0 92 0.6 S 4 6 2 3 1022.7 1022.7 0.0
18/04:00am 8.6 7.2 7.4 92 0.6 S 4 6 2 3 1022.6 1022.6 0.0
18/03:30am 8.8 7.5 7.6 92 0.6 SSE 4 6 2 3 1022.5 1022.5 0.0
18/03:00am 8.8 8.2 7.6 92 0.6 CALM 0 0 0 0 1022.5 1022.5 0.0
18/02:30am 7.8 7.0 6.3 90 0.7 CALM 0 2 0 1 1022.4 1022.4 0.0
18/02:00am 9.6 9.1 7.9 89 0.8 CALM 0 0 0 0 1022.5 1022.5 0.0
18/01:30am 9.7 9.2 8.0 89 0.8 CALM 0 0 0 0 1022.7 1022.7 0.0
18/01:00am 9.9 9.4 7.8 87 1.0 CALM 0 0 0 0 1022.9 1022.8 0.0
18/12:30am 9.9 9.1 8.0 88 0.9 SE 2 6 1 3 1023.1 1023.0 0.0
18/12:00am 9.9 9.5 8.3 90 0.8 CALM 0 2 0 1 1023.3 1023.2 0.0
 
Date/Time
EST
Temp
°C
App
Temp
°C
Dew
Point
°C
Rel
Hum
%
Delta-T
°C
Wind Press
QNH
hPa
Press
MSL
hPa
Rain since
9am
mm
Dir  Spd
km/h
Gust
km/h
Spd
kts
Gust
kts
17/11:30pm 8.7 7.9 6.5 86 1.0 CALM 0 0 0 0 1023.2 1023.1 0.0
17/11:00pm 10.2 9.7 7.8 85 1.2 CALM 0 0 0 0 1023.2 1023.1 0.0
17/10:30pm 10.3 9.9 8.1 86 1.1 CALM 0 0 0 0 1023.3 1023.2 0.0
17/10:00pm 11.1 10.7 8.1 82 1.5 CALM 0 0 0 0 1023.4 1023.3 0.0
17/09:30pm 12.2 11.8 8.3 77 1.9 CALM 0 0 0 0 1023.3 1023.2 0.0
17/09:00pm 13.3 13.0 8.6 73 2.3 CALM 0 0 0 0 1023.4 1023.3 0.0
17/08:30pm 14.4 14.0 8.1 66 3.2 CALM 0 0 0 0 1023.2 1023.1 0.0
17/08:00pm 15.7 14.7 8.7 63 3.6 ESE 4 7 2 4 1023.0 1022.9 0.0
17/07:30pm 16.7 15.4 9.1 61 3.9 ESE 6 9 3 5 1022.7 1022.7 0.0
17/07:00pm 16.9 15.0 9.1 60 4.0 E 9 15 5 8 1022.2 1022.2 0.0
17/06:30pm 17.4 15.3 9.6 60 4.1 E 11 22 6 12 1021.7 1021.6 0.0
17/06:00pm 17.6 16.3 9.2 58 4.4 ENE 6 11 3 6 1021.2 1021.1 0.0
17/05:30pm 18.9 16.3 9.4 54 5.0 E 13 19 7 10 1020.5 1020.4 0.0
17/05:00pm 20.4 18.2 9.3 49 5.9 ENE 11 20 6 11 1020.3 1020.2 0.0
17/04:30pm 21.0 17.9 8.9 46 6.4 ENE 15 22 8 12 1020.0 1019.9 0.0
17/04:00pm 21.8 19.0 8.7 43 6.9 E 13 20 7 11 1019.4 1019.3 0.0
17/03:30pm 23.6 20.6 9.2 40 7.8 ENE 15 24 8 13 1019.2 1019.1 0.0
17/03:00pm 23.1 21.2 7.6 37 8.1 NE 7 15 4 8 1019.1 1019.0 0.0
17/02:30pm 23.1 21.1 6.4 34 8.6 E 6 9 3 5 1019.2 1019.1 0.0
17/02:00pm 24.3 22.3 6.1 31 9.3 WNW 6 13 3 7 1019.4 1019.3 0.0
17/01:30pm 23.2 20.6 6.1 33 8.7 SSW 9 19 5 10 1019.7 1019.6 0.0
17/01:00pm 23.5 20.6 6.7 34 8.7 W 11 22 6 12 1020.1 1020.0 0.0
17/12:30pm 23.3 21.4 7.4 36 8.3 SSW 7 20 4 11 1020.4 1020.3 0.0
17/12:00pm 22.0 19.8 6.3 36 7.9 SSW 7 19 4 10 1020.9 1020.8 0.0
17/11:30am 22.3 19.9 6.9 37 7.9 WSW 9 22 5 12 1021.2 1021.1 0.0
17/11:00am 22.1 19.8 7.5 39 7.6 SW 9 20 5 11 1021.8 1021.7 0.0
17/10:30am 20.8 17.7 7.1 41 7.0 SSW 13 24 7 13 1022.2 1022.2 0.0
17/10:00am 19.9 17.0 6.6 42 6.7 SSW 11 20 6 11 1022.4 1022.4 0.0
17/09:30am 19.3 16.5 6.8 44 6.3 SSW 11 19 6 10 1022.5 1022.5 0.0
17/09:00am 18.5 15.3 6.7 46 5.9 SSW 13 24 7 13 1022.6 1022.6 0.0
17/08:30am 17.7 14.4 6.6 48 5.5 SSW 13 22 7 12 1022.6 1022.6 0.0
17/08:00am 16.8 13.2 6.6 51 5.0 SSW 15 22 8 12 1022.1 1022.1 0.0
17/07:30am 15.4 12.2 6.7 56 4.3 SSW 13 20 7 11 1021.9 1021.9 0.0
17/07:00am 14.1 11.2 6.7 61 3.6 SSW 11 15 6 8 1021.6 1021.5 0.0
17/06:30am 12.8 10.8 7.3 69 2.7 SSW 7 13 4 7 1021.4 1021.3 0.0
17/06:00am 11.9 10.2 7.4 74 2.2 SSW 6 11 3 6 1020.9 1020.8 0.0
17/05:30am 11.7 10.0 7.4 75 2.1 SSW 6 9 3 5 1020.7 1020.6 0.0
17/05:00am 12.0 10.1 7.5 74 2.2 SSW 7 15 4 8 1020.3 1020.2 0.0
17/04:30am 11.9 10.2 7.6 75 2.1 SSW 6 7 3 4 1020.0 1019.9 0.0
17/04:00am 12.1 10.2 7.6 74 2.2 S 7 9 4 5 1019.4 1019.3 0.0
17/03:30am 12.2 10.3 7.5 73 2.3 SSE 7 9 4 5 1019.3 1019.2 0.0
17/03:00am 12.6 10.0 7.7 72 2.4 SSW 11 15 6 8 1019.2 1019.1 0.0
17/02:30am 13.0 10.8 7.7 70 2.6 SSW 9 13 5 7 1019.2 1019.1 0.0
17/02:00am 13.3 11.4 7.5 68 2.8 SSW 7 15 4 8 1019.4 1019.3 0.0
17/01:30am 13.2 11.3 6.8 65 3.1 SSW 6 11 3 6 1019.6 1019.5 0.0
17/01:00am 13.6 11.6 6.2 61 3.5 SSW 6 11 3 6 1019.6 1019.5 0.0
17/12:30am 13.7 11.7 6.1 60 3.6 SSW 6 9 3 5 1019.7 1019.6 0.0
17/12:00am 13.7 11.7 6.3 61 3.5 SSW 6 7 3 4 1019.7 1019.6 0.0
 
Date/Time
EST
Temp
°C
App
Temp
°C
Dew
Point
°C
Rel
Hum
%
Delta-T
°C
Wind Press
QNH
hPa
Press
MSL
hPa
Rain since
9am
mm
Dir  Spd
km/h
Gust
km/h
Spd
kts
Gust
kts
16/11:30pm 13.8 11.8 6.2 60 3.6 SSW 6 9 3 5 1019.6 1019.5 0.0
16/11:00pm 14.2 12.2 6.3 59 3.8 SSW 6 9 3 5 1019.5 1019.4 0.0
16/10:30pm 14.5 12.6 6.8 60 3.8 SW 6 11 3 6 1019.5 1019.4 0.0
16/10:00pm 14.6 13.2 7.4 62 3.5 S 4 9 2 5 1019.6 1019.5 0.0
16/09:30pm 15.2 14.0 8.2 63 3.5 S 4 9 2 5 1019.3 1019.2 0.0
16/09:00pm 14.5 13.3 8.0 65 3.2 SSW 4 6 2 3 1019.1 1019.0 0.0

Other Formats:

Comma delimited format used in spreadsheet applications
http://www.bom.gov.au/fwo/IDQ60801/IDQ60801.95575.axf

JavaScript Object Notation format (JSON) in row-major order
http://www.bom.gov.au/fwo/IDQ60801/IDQ60801.95575.json